Time;durP1;ratioP1;P1;durP2;ratioP2;P2;SDS_P1;SDS_P2;PMS_P1;PMS_P2;Temp;Humidity;BMP_temperature;BMP_pressure;BME280_temperature;BME280_humidity;BME280_pressure;Samples;Min_cycle;Max_cycle;Signal;HPM_P1;HPM_P2
2022/10/21 00:00:50;;;;;;;9.82;3.13;;;;;;;17.40;96.83;100146.88;5081743;28;20385;-63
2022/10/21 00:03:18;;;;;;;8.02;2.78;;;;;;;17.18;95.20;100152.44;5079502;28;20154;-63
2022/10/21 00:05:46;;;;;;;8.85;2.90;;;;;;;17.27;97.32;100164.16;5094020;28;20047;-63
2022/10/21 00:08:14;;;;;;;9.13;2.88;;;;;;;17.12;95.91;100154.72;5088459;28;20045;-64
2022/10/21 00:10:41;;;;;;;9.95;2.80;;;;;;;17.22;97.35;100150.53;5076708;28;20423;-63
2022/10/21 00:13:08;;;;;;;6.93;2.70;;;;;;;17.13;97.27;100144.41;5072598;28;20445;-63
2022/10/21 00:15:36;;;;;;;6.72;2.72;;;;;;;17.07;96.72;100135.56;5077018;28;20063;-62
2022/10/21 00:18:03;;;;;;;9.88;3.10;;;;;;;16.98;97.46;100143.34;5085239;28;20040;-63
2022/10/21 00:20:30;;;;;;;8.95;2.17;;;;;;;17.30;98.40;100135.56;5075625;28;20063;-63
2022/10/21 00:23:02;;;;;;;6.10;2.80;;;;;;;17.45;97.98;100132.63;5094059;28;20476;-63
2022/10/21 00:25:29;;;;;;;5.78;2.67;;;;;;;17.43;97.37;100128.63;5092893;28;20055;-64
2022/10/21 00:27:56;;;;;;;7.85;2.55;;;;;;;17.52;97.48;100132.00;5074306;28;20036;-64
2022/10/21 00:30:24;;;;;;;10.32;2.53;;;;;;;17.63;96.91;100119.81;5093515;28;20048;-63
2022/10/21 00:32:51;;;;;;;8.63;2.63;;;;;;;17.64;96.03;100121.41;5094689;28;20475;-63
2022/10/21 00:35:18;;;;;;;9.32;2.67;;;;;;;17.44;93.55;100121.88;5093872;28;20059;-62
2022/10/21 00:37:46;;;;;;;8.57;2.63;;;;;;;17.53;95.37;100126.03;5092224;28;20036;-64
2022/10/21 00:40:13;;;;;;;8.68;2.50;;;;;;;17.64;94.66;100126.22;5075198;28;20048;-62
2022/10/21 00:42:40;;;;;;;6.25;2.40;;;;;;;17.54;94.62;100121.28;5091900;28;20261;-63
2022/10/21 00:45:13;;;;;;;12.23;2.80;;;;;;;17.50;95.66;100121.22;5092948;28;20074;-64
2022/10/21 00:47:47;;;;;;;8.20;2.65;;;;;;;17.26;94.33;100109.66;5093297;28;20517;-64
2022/10/21 00:50:26;;;;;;;8.77;2.50;;;;;;;17.36;96.56;100103.47;5057152;28;20040;-62
2022/10/21 00:52:55;;;;;;;10.90;2.50;;;;;;;17.23;96.21;100100.06;5080521;28;20443;-62
2022/10/21 00:55:23;;;;;;;11.20;2.55;;;;;;;17.27;96.17;100102.91;5075034;28;20063;-63
2022/10/21 00:57:51;;;;;;;11.13;2.72;;;;;;;17.30;95.45;100100.19;5092822;28;20051;-62
2022/10/21 01:00:18;;;;;;;9.82;2.55;;;;;;;17.29;95.82;100089.41;5091645;28;20487;-63
2022/10/21 01:02:46;;;;;;;8.30;2.20;;;;;;;17.30;96.34;100086.25;5093443;28;20052;-63
2022/10/21 01:05:13;;;;;;;9.68;3.05;;;;;;;17.16;95.36;100083.25;5090796;28;20068;-62
2022/10/21 01:07:41;;;;;;;8.10;2.60;;;;;;;17.40;96.68;100068.91;5091901;28;20052;-63
2022/10/21 01:10:09;;;;;;;9.35;3.05;;;;;;;16.89;95.19;100070.47;5093823;28;20048;-63
2022/10/21 01:13:07;;;;;;;11.85;2.90;;;;;;;17.11;96.70;100058.50;5068000;28;20051;-63
2022/10/21 01:15:44;;;;;;;8.75;2.70;;;;;;;17.30;97.41;100057.59;5058183;28;20052;-64
2022/10/21 01:18:24;;;;;;;8.85;2.80;;;;;;;17.51;96.21;100052.41;5084159;28;20051;-62
2022/10/21 01:21:13;;;;;;;12.48;3.05;;;;;;;17.45;95.70;100051.09;5079208;28;20371;-63
2022/10/21 01:24:23;;;;;;;15.67;2.97;;;;;;;17.48;95.69;100044.81;5073926;28;20048;-63
2022/10/21 01:27:15;;;;;;;8.77;2.70;;;;;;;16.99;97.12;100044.00;5085512;28;20048;-63
2022/10/21 01:29:58;;;;;;;11.30;2.90;;;;;;;17.06;98.16;100041.31;5093788;28;20170;-64
2022/10/21 01:32:38;;;;;;;12.25;2.97;;;;;;;17.10;97.73;100053.31;5072885;28;20059;-63
2022/10/21 01:35:25;;;;;;;11.00;2.63;;;;;;;17.64;97.56;100051.78;5086109;28;20075;-64
2022/10/21 01:38:09;;;;;;;7.75;2.65;;;;;;;17.52;96.06;100056.81;5085779;28;20044;-63
2022/10/21 01:40:48;;;;;;;7.32;2.63;;;;;;;17.67;96.94;100066.97;5091951;28;20036;-63
2022/10/21 01:43:33;;;;;;;11.18;2.85;;;;;;;17.76;96.05;100073.06;5081461;28;20063;-63
2022/10/21 01:46:06;;;;;;;13.60;3.35;;;;;;;17.92;94.90;100066.09;5078431;28;20438;-63
2022/10/21 01:48:40;;;;;;;11.40;2.92;;;;;;;17.85;94.60;100066.00;5091063;28;20483;-63
2022/10/21 01:51:09;;;;;;;10.38;3.33;;;;;;;17.86;95.62;100080.75;5091892;28;20058;-63
2022/10/21 01:54:02;;;;;;;11.35;3.03;;;;;;;17.82;95.45;100102.19;5078951;28;20051;-62
2022/10/21 01:56:30;;;;;;;7.80;2.70;;;;;;;17.62;96.55;100121.03;5081962;28;20060;-63
2022/10/21 01:58:58;;;;;;;17.05;3.00;;;;;;;17.50;95.55;100118.44;5082365;28;20067;-63
2022/10/21 02:01:26;;;;;;;11.15;2.60;;;;;;;17.53;96.30;100137.19;5091484;28;20059;-63
2022/10/21 02:03:56;;;;;;;13.60;3.42;;;;;;;17.45;96.74;100154.13;5085958;28;20075;-63
2022/10/21 02:06:24;;;;;;;6.85;2.72;;;;;;;17.61;98.35;100166.75;5090432;28;20151;-63
2022/10/21 02:08:51;;;;;;;12.00;3.40;;;;;;;17.55;99.70;100165.47;5075008;28;20036;-64
2022/10/21 02:11:19;;;;;;;8.95;3.08;;;;;;;17.70;100.00;100172.84;5093054;28;20105;-62
2022/10/21 02:14:05;;;;;;;10.40;3.42;;;;;;;17.63;100.00;100178.31;5074609;28;20419;-62
2022/10/21 02:16:36;;;;;;;8.43;3.08;;;;;;;17.77;100.00;100170.19;5095153;28;20518;-62
2022/10/21 02:19:05;;;;;;;7.72;2.60;;;;;;;17.82;100.00;100155.13;5078582;28;20045;-63
2022/10/21 02:21:34;;;;;;;9.43;3.50;;;;;;;17.72;100.00;100134.28;5087706;28;20529;-63
2022/10/21 02:24:39;;;;;;;10.18;3.17;;;;;;;17.79;100.00;100119.66;5090992;28;20110;-62
2022/10/21 02:27:07;;;;;;;11.00;3.90;;;;;;;17.80;100.00;100105.34;5091064;28;20052;-63
2022/10/21 02:29:39;;;;;;;9.45;3.72;;;;;;;17.77;100.00;100086.63;5085058;28;20048;-64
2022/10/21 02:32:19;;;;;;;9.95;3.67;;;;;;;17.82;100.00;100074.31;5094556;28;20074;-63
2022/10/21 02:35:13;;;;;;;7.80;3.50;;;;;;;17.63;100.00;100027.91;5093540;28;20456;-63
2022/10/21 02:37:46;;;;;;;10.57;3.72;;;;;;;17.75;100.00;100001.78;5095571;28;20048;-63
2022/10/21 02:40:26;;;;;;;12.93;3.80;;;;;;;17.64;100.00;99979.38;5096528;28;20059;-63
2022/10/21 02:42:57;;;;;;;11.63;3.40;;;;;;;17.71;100.00;99992.63;5092049;28;20417;-63
2022/10/21 02:45:25;;;;;;;5.75;2.78;;;;;;;17.92;100.00;99990.09;5094939;28;20062;-62
2022/10/21 02:47:52;;;;;;;7.25;2.88;;;;;;;17.84;100.00;99980.03;5094439;28;20044;-63
2022/10/21 02:50:20;;;;;;;11.80;3.60;;;;;;;18.02;100.00;99989.41;5095083;28;20111;-63
2022/10/21 02:52:47;;;;;;;12.52;3.42;;;;;;;18.05;99.76;99990.63;5069892;28;20056;-62
2022/10/21 02:55:14;;;;;;;13.93;3.13;;;;;;;17.98;99.73;99986.59;5058775;28;20056;-63
2022/10/21 02:57:42;;;;;;;10.65;3.45;;;;;;;17.78;100.00;99985.13;5089978;28;20355;-62
2022/10/21 03:00:10;;;;;;;9.25;2.97;;;;;;;17.62;100.00;99989.31;5074976;28;20111;-62
2022/10/21 03:02:37;;;;;;;8.80;3.40;;;;;;;17.80;100.00;99998.72;5088807;28;20056;-62
2022/10/21 03:05:04;;;;;;;10.07;2.97;;;;;;;17.51;100.00;100007.84;5068322;28;20048;-62
2022/10/21 03:07:32;;;;;;;7.63;3.20;;;;;;;17.45;100.00;100009.34;5090065;28;20048;-62
2022/10/21 03:09:59;;;;;;;8.93;2.70;;;;;;;17.51;100.00;100014.22;5076380;28;20045;-63
2022/10/21 03:12:26;;;;;;;8.40;2.95;;;;;;;17.62;100.00;100042.22;5092523;28;20065;-63
2022/10/21 03:14:54;;;;;;;7.38;2.90;;;;;;;17.92;100.00;100054.19;5078576;28;20059;-62
2022/10/21 03:17:21;;;;;;;10.27;3.15;;;;;;;17.92;100.00;100068.13;5092940;28;20592;-62
2022/10/21 03:19:51;;;;;;;9.23;3.25;;;;;;;17.95;100.00;100068.16;5094673;28;20048;-63
2022/10/21 03:22:18;;;;;;;10.00;3.78;;;;;;;17.90;100.00;100079.63;5093457;28;20048;-63
2022/10/21 03:24:46;;;;;;;9.75;3.17;;;;;;;18.01;100.00;100078.97;5094674;28;20059;-63
2022/10/21 03:27:13;;;;;;;7.25;2.90;;;;;;;18.04;100.00;100067.88;5093695;28;20047;-62
2022/10/21 03:29:40;;;;;;;8.13;2.95;;;;;;;17.85;100.00;100066.00;5095952;28;20044;-62
2022/10/21 03:32:07;;;;;;;8.35;3.47;;;;;;;17.76;100.00;100050.78;5092875;28;20044;-63
2022/10/21 03:34:34;;;;;;;9.48;3.38;;;;;;;17.70;100.00;100047.50;5095907;28;20069;-63
2022/10/21 03:37:02;;;;;;;10.25;2.80;;;;;;;17.50;100.00;100037.69;5092368;28;20531;-63
2022/10/21 03:39:29;;;;;;;7.13;2.83;;;;;;;17.32;100.00;100042.16;5095596;28;20047;-63
2022/10/21 03:41:56;;;;;;;10.98;3.00;;;;;;;17.35;100.00;100052.53;5094200;28;20059;-64
2022/10/21 03:44:23;;;;;;;8.07;3.30;;;;;;;17.32;100.00;100050.50;5094566;28;20047;-62
2022/10/21 03:46:51;;;;;;;8.20;2.78;;;;;;;17.44;100.00;100050.28;5093723;28;20048;-63
2022/10/21 03:49:18;;;;;;;7.93;2.50;;;;;;;17.51;100.00;100056.00;5094313;28;20044;-64
2022/10/21 03:51:48;;;;;;;8.97;3.10;;;;;;;17.39;100.00;100072.06;5092658;28;20095;-63
2022/10/21 03:54:17;;;;;;;7.50;3.05;;;;;;;17.51;100.00;100071.88;5093954;28;20047;-63
2022/10/21 03:56:44;;;;;;;6.65;2.50;;;;;;;17.36;100.00;100059.72;5092109;28;20059;-62
2022/10/21 03:59:12;;;;;;;8.80;3.03;;;;;;;17.47;100.00;100054.34;5095266;28;20047;-62
2022/10/21 04:01:39;;;;;;;7.85;3.05;;;;;;;17.21;100.00;100059.88;5090910;28;20154;-62
2022/10/21 04:04:06;;;;;;;8.32;3.20;;;;;;;17.22;100.00;100062.28;5093937;28;20044;-63
2022/10/21 04:06:34;;;;;;;9.70;3.50;;;;;;;17.05;100.00;100078.69;5091004;28;20518;-61
2022/10/21 04:09:02;;;;;;;9.77;3.30;;;;;;;17.21;100.00;100073.78;5094987;28;20044;-62
2022/10/21 04:11:29;;;;;;;12.70;3.58;;;;;;;17.10;100.00;100081.16;5093549;28;20051;-63
2022/10/21 04:13:56;;;;;;;12.63;2.92;;;;;;;17.38;100.00;100070.47;5093097;28;20056;-63
2022/10/21 04:16:24;;;;;;;11.30;3.53;;;;;;;17.50;100.00;100073.09;5093849;28;20060;-62
2022/10/21 04:18:51;;;;;;;8.70;3.20;;;;;;;17.49;100.00;100072.28;5093752;28;20059;-63
2022/10/21 04:21:18;;;;;;;12.50;3.65;;;;;;;17.50;100.00;100071.09;5089988;28;20059;-63
2022/10/21 04:23:46;;;;;;;7.80;3.40;;;;;;;17.48;100.00;100061.50;5080880;28;20041;-64
2022/10/21 04:26:13;;;;;;;10.73;4.03;;;;;;;17.01;100.00;100058.34;5081694;28;20036;-64
2022/10/21 04:28:40;;;;;;;14.95;4.43;;;;;;;17.14;100.00;100065.34;5095209;28;20048;-62
2022/10/21 04:31:08;;;;;;;8.10;3.47;;;;;;;17.15;100.00;100062.16;5092251;28;20052;-63
2022/10/21 04:33:35;;;;;;;10.18;3.75;;;;;;;17.25;100.00;100067.09;5094675;28;20364;-63
2022/10/21 04:36:02;;;;;;;11.20;4.53;;;;;;;16.97;100.00;100069.41;5091948;28;20122;-63
2022/10/21 04:38:30;;;;;;;11.07;4.55;;;;;;;17.14;100.00;100063.31;5093882;28;20040;-63
2022/10/21 04:40:58;;;;;;;13.70;4.60;;;;;;;17.29;100.00;100070.75;5088492;28;20047;-64
2022/10/21 04:43:26;;;;;;;13.70;4.85;;;;;;;17.01;100.00;100077.81;5087540;28;20060;-64
2022/10/21 04:45:53;;;;;;;14.35;4.80;;;;;;;16.97;100.00;100065.81;5077334;28;20052;-64
2022/10/21 04:48:21;;;;;;;12.82;4.82;;;;;;;17.12;100.00;100067.69;5094002;28;20051;-62
2022/10/21 04:50:49;;;;;;;12.57;4.90;;;;;;;17.19;100.00;100074.16;5092142;28;20044;-63
2022/10/21 04:53:17;;;;;;;13.45;4.82;;;;;;;17.12;100.00;100073.25;5091768;28;20048;-63
2022/10/21 04:55:44;;;;;;;11.75;5.20;;;;;;;17.05;100.00;100056.44;5092503;28;20052;-63
2022/10/21 04:58:12;;;;;;;12.63;5.57;;;;;;;17.18;100.00;100063.38;5093551;28;20048;-63
2022/10/21 05:00:39;;;;;;;13.57;5.97;;;;;;;17.24;100.00;100065.50;5091785;28;20511;-63
2022/10/21 05:03:06;;;;;;;17.45;5.60;;;;;;;17.17;100.00;100061.78;5087999;28;20040;-62
2022/10/21 05:05:33;;;;;;;12.52;5.75;;;;;;;17.31;100.00;100064.81;5075590;28;20776;-63
2022/10/21 05:08:01;;;;;;;12.43;5.65;;;;;;;17.16;100.00;100052.63;5090138;28;20047;-62
2022/10/21 05:10:29;;;;;;;14.48;6.30;;;;;;;16.84;100.00;100048.53;5076003;28;20057;-62
2022/10/21 05:12:57;;;;;;;14.73;5.95;;;;;;;17.07;100.00;100056.88;5091012;28;20064;-64
2022/10/21 05:15:25;;;;;;;14.18;5.85;;;;;;;17.25;100.00;100057.94;5057484;28;20052;-63
2022/10/21 05:17:52;;;;;;;18.05;6.50;;;;;;;17.28;100.00;100071.09;5086939;28;20060;-63
2022/10/21 05:20:20;;;;;;;13.00;5.88;;;;;;;17.39;100.00;100084.03;5092831;28;20055;-62
2022/10/21 05:22:48;;;;;;;22.40;9.77;;;;;;;17.61;100.00;100085.16;5093337;28;20049;-62
2022/10/21 05:25:15;;;;;;;16.85;8.05;;;;;;;17.57;100.00;100090.69;5093803;28;20051;-62
2022/10/21 05:27:43;;;;;;;19.90;5.90;;;;;;;17.75;100.00;100086.19;5091066;28;20056;-63
2022/10/21 05:30:11;;;;;;;11.27;5.32;;;;;;;17.80;100.00;100097.00;5057837;28;20484;-63
2022/10/21 05:32:39;;;;;;;14.20;5.40;;;;;;;17.68;100.00;100094.44;5088138;28;20058;-63
2022/10/21 05:35:07;;;;;;;13.25;5.30;;;;;;;17.68;100.00;100079.69;5084134;28;20067;-62
2022/10/21 05:37:34;;;;;;;12.23;5.97;;;;;;;17.72;100.00;100073.00;5091490;28;20052;-63
2022/10/21 05:40:03;;;;;;;14.57;6.13;;;;;;;17.77;100.00;100066.28;5090348;28;20063;-64
2022/10/21 05:42:30;;;;;;;20.23;6.10;;;;;;;17.86;100.00;100070.44;5092009;28;20051;-63
2022/10/21 05:44:57;;;;;;;15.65;5.40;;;;;;;18.04;100.00;100075.41;5091685;28;20479;-66
2022/10/21 05:47:25;;;;;;;18.00;5.03;;;;;;;17.82;100.00;100085.47;5080285;28;21834;-63
2022/10/21 05:49:52;;;;;;;15.60;5.22;;;;;;;18.08;100.00;100087.44;5085624;28;20122;-64
2022/10/21 05:52:19;;;;;;;15.88;5.47;;;;;;;18.15;100.00;100079.16;5089512;28;20052;-64
2022/10/21 05:54:47;;;;;;;20.35;12.30;;;;;;;18.01;100.00;100082.53;5090499;28;20048;-64
2022/10/21 05:57:14;;;;;;;12.57;5.18;;;;;;;17.89;100.00;100093.94;5091139;28;20048;-63
2022/10/21 05:59:41;;;;;;;24.05;12.35;;;;;;;17.76;100.00;100107.31;5090666;28;20044;-63
2022/10/21 06:02:09;;;;;;;23.08;11.90;;;;;;;17.63;100.00;100124.59;5085189;28;20055;-64
2022/10/21 06:04:36;;;;;;;15.55;5.40;;;;;;;17.48;100.00;100123.59;5083731;28;20048;-63
2022/10/21 06:07:05;;;;;;;14.27;6.03;;;;;;;17.81;100.00;100131.25;5090515;28;20057;-64
2022/10/21 06:09:32;;;;;;;12.45;5.13;;;;;;;17.63;100.00;100144.91;5079323;28;20048;-65
2022/10/21 06:11:59;;;;;;;14.85;5.97;;;;;;;17.64;100.00;100160.41;5090644;28;20052;-65
2022/10/21 06:14:27;;;;;;;16.90;5.57;;;;;;;17.79;100.00;100173.41;5074510;28;20063;-65
2022/10/21 06:16:54;;;;;;;17.73;6.07;;;;;;;17.91;100.00;100164.03;5087519;28;20055;-66
2022/10/21 06:19:21;;;;;;;16.27;5.68;;;;;;;17.93;100.00;100161.66;5101422;28;20147;-65
2022/10/21 06:21:48;;;;;;;22.33;11.80;;;;;;;18.24;98.84;100166.88;5089998;28;20063;-65
2022/10/21 06:24:16;;;;;;;16.95;8.20;;;;;;;18.30;96.79;100154.22;5091561;28;20055;-64
2022/10/21 06:26:43;;;;;;;20.63;9.88;;;;;;;17.82;98.65;100177.41;5089358;28;20083;-68
2022/10/21 06:29:10;;;;;;;16.40;5.97;;;;;;;17.87;99.48;100172.31;5082301;28;20047;-67
2022/10/21 06:31:38;;;;;;;14.43;5.78;;;;;;;17.93;100.00;100190.34;5088854;28;20047;-68
2022/10/21 06:34:05;;;;;;;17.15;6.15;;;;;;;17.92;100.00;100196.28;5090748;28;20075;-67
2022/10/21 06:36:32;;;;;;;12.48;6.72;;;;;;;17.87;100.00;100202.97;5085507;28;20067;-69
2022/10/21 06:39:00;;;;;;;19.40;6.10;;;;;;;17.88;100.00;100207.38;5069531;28;20528;-67
2022/10/21 06:41:27;;;;;;;16.67;5.40;;;;;;;18.04;100.00;100203.63;5093905;28;20074;-67
2022/10/21 06:43:54;;;;;;;12.45;4.88;;;;;;;17.96;100.00;100202.72;5091255;28;20426;-62
2022/10/21 06:46:22;;;;;;;12.52;5.45;;;;;;;17.79;100.00;100197.66;5092630;28;20048;-63
2022/10/21 06:48:49;;;;;;;16.98;4.82;;;;;;;17.88;100.00;100190.66;5092120;28;20082;-64
2022/10/21 06:51:19;;;;;;;16.30;8.40;;;;;;;17.70;100.00;100206.28;5093614;28;20047;-63
2022/10/21 06:53:50;;;;;;;12.93;6.45;;;;;;;17.96;100.00;100209.09;5096387;27;20051;-63
2022/10/21 06:56:18;;;;;;;12.98;6.50;;;;;;;17.80;100.00;100202.09;5091143;28;20056;-64
2022/10/21 06:58:47;;;;;;;12.80;5.32;;;;;;;17.55;100.00;100195.28;5090327;28;20055;-63
2022/10/21 07:01:29;;;;;;;14.60;5.57;;;;;;;17.73;100.00;100202.75;5086137;28;20055;-64
2022/10/21 07:04:14;;;;;;;13.02;4.90;;;;;;;17.83;100.00;100206.91;5086267;28;20053;-65
2022/10/21 07:06:42;;;;;;;12.05;4.80;;;;;;;17.59;100.00;100198.94;5087830;28;20052;-64
2022/10/21 07:09:09;;;;;;;13.10;5.63;;;;;;;17.63;100.00;100202.56;5088687;28;20052;-65
2022/10/21 07:11:36;;;;;;;16.70;11.00;;;;;;;17.64;100.00;100202.19;5089851;28;20044;-64
2022/10/21 07:14:04;;;;;;;29.70;21.50;;;;;;;17.69;100.00;100215.84;5090992;28;20048;-64
2022/10/21 07:16:36;;;;;;;18.45;11.25;;;;;;;17.71;100.00;100213.44;5072634;28;20075;-63
2022/10/21 07:19:04;;;;;;;13.18;7.07;;;;;;;17.88;100.00;100229.69;5091733;28;20048;-66
2022/10/21 07:21:32;;;;;;;16.25;6.00;;;;;;;17.98;100.00;100245.75;5090786;28;20040;-66
2022/10/21 07:23:59;;;;;;;13.68;5.25;;;;;;;17.93;100.00;100265.59;5087671;28;20577;-66
2022/10/21 07:26:29;;;;;;;11.40;5.90;;;;;;;17.99;100.00;100264.06;5090106;28;20523;-65
2022/10/21 07:28:59;;;;;;;13.27;6.95;;;;;;;17.80;100.00;100250.22;5087721;28;20364;-65
2022/10/21 07:31:29;;;;;;;18.23;5.55;;;;;;;17.63;100.00;100233.22;5085584;28;20047;-66
2022/10/21 07:33:58;;;;;;;15.93;5.40;;;;;;;17.81;100.00;100240.72;5091944;28;20605;-66
2022/10/21 07:36:27;;;;;;;17.00;5.15;;;;;;;17.88;100.00;100259.50;5086913;28;20149;-66
2022/10/21 07:38:58;;;;;;;13.20;4.80;;;;;;;17.87;100.00;100267.06;5086051;28;20052;-69
2022/10/21 07:41:31;;;;;;;10.80;4.90;;;;;;;18.01;100.00;100266.47;5073655;28;20059;-66
2022/10/21 07:43:59;;;;;;;15.43;4.47;;;;;;;17.86;100.00;100265.47;5085923;28;20126;-66
2022/10/21 07:46:27;;;;;;;24.73;16.23;;;;;;;18.02;100.00;100258.94;5087177;28;20052;-66
2022/10/21 07:48:55;;;;;;;23.95;8.38;;;;;;;18.03;100.00;100243.84;5083972;28;20138;-66
2022/10/21 07:51:24;;;;;;;78.45;10.48;;;;;;;17.95;100.00;100256.84;5091628;28;20036;-66
2022/10/21 07:53:57;;;;;;;22.98;5.07;;;;;;;17.88;100.00;100267.88;5081579;28;20519;-66
2022/10/21 07:56:35;;;;;;;18.70;4.82;;;;;;;17.86;100.00;100271.03;5086963;28;20060;-66
2022/10/21 07:59:03;;;;;;;14.93;4.35;;;;;;;17.38;100.00;100273.72;5085921;28;20049;-65
2022/10/21 08:01:39;;;;;;;147.25;15.85;;;;;;;17.46;100.00;100264.31;5052430;28;20044;-65
2022/10/21 08:04:06;;;;;;;;;;;;;;;17.61;100.00;100264.22;5076390;28;20056;-64
2022/10/21 08:06:34;;;;;;;22.52;6.97;;;;;;;17.70;100.00;100275.94;5083040;28;19927;-65
2022/10/21 08:09:01;;;;;;;19.88;10.20;;;;;;;17.90;100.00;100277.44;5084192;28;20060;-64
2022/10/21 08:11:30;;;;;;;15.77;4.47;;;;;;;18.05;100.00;100283.25;5087539;28;20041;-65
2022/10/21 08:13:58;;;;;;;55.53;6.68;;;;;;;18.09;100.00;100281.34;5091370;28;20064;-64
2022/10/21 08:16:26;;;;;;;108.60;12.57;;;;;;;18.15;100.00;100280.66;5089162;28;20147;-64
2022/10/21 08:18:54;;;;;;;21.63;5.10;;;;;;;18.20;100.00;100273.97;5087080;28;20052;-64
2022/10/21 08:21:21;;;;;;;209.05;19.60;;;;;;;18.31;100.00;100275.72;5086415;28;20158;-64
2022/10/21 08:23:48;;;;;;;36.58;6.95;;;;;;;18.64;100.00;100278.63;5091097;28;20158;-64
2022/10/21 08:26:16;;;;;;;31.02;17.23;;;;;;;18.59;99.36;100280.94;5087703;28;20056;-64
2022/10/21 08:28:43;;;;;;;36.95;17.52;;;;;;;18.64;99.15;100283.38;5079138;28;20044;-63
2022/10/21 08:31:16;;;;;;;14.25;5.18;;;;;;;18.77;98.33;100271.63;5079366;28;20044;-64
2022/10/21 08:33:44;;;;;;;9.43;3.10;;;;;;;18.61;98.22;100284.16;5073451;28;20411;-64
2022/10/21 08:36:15;;;;;;;7.70;2.80;;;;;;;18.69;98.38;100281.06;5081813;28;20055;-64
2022/10/21 08:38:43;;;;;;;7.88;2.92;;;;;;;18.67;98.39;100279.88;5099809;27;20052;-65
2022/10/21 08:41:25;;;;;;;9.70;3.60;;;;;;;18.32;99.79;100282.09;5082845;28;20051;-64
2022/10/21 08:43:53;;;;;;;16.95;4.32;;;;;;;18.49;100.00;100276.81;5082859;28;20063;-63
2022/10/21 08:46:23;;;;;;;12.75;3.95;;;;;;;18.53;98.70;100276.88;5082831;28;20047;-65
2022/10/21 08:48:54;;;;;;;9.25;3.42;;;;;;;18.52;99.44;100276.06;5080751;28;20048;-64
2022/10/21 08:51:32;;;;;;;11.85;3.70;;;;;;;18.48;98.25;100286.34;5082414;28;20044;-64
2022/10/21 08:54:04;;;;;;;12.50;3.60;;;;;;;18.33;99.73;100286.50;5071908;28;20063;-64
2022/10/21 08:56:31;;;;;;;14.05;5.20;;;;;;;18.23;100.00;100290.75;5084499;28;20043;-64
2022/10/21 08:58:59;;;;;;;11.65;3.80;;;;;;;18.28;100.00;100296.00;5096580;28;20159;-64
2022/10/21 09:01:38;;;;;;;10.20;4.00;;;;;;;18.59;100.00;100294.88;5095435;28;20487;-65
2022/10/21 09:04:08;;;;;;;11.73;4.50;;;;;;;18.65;100.00;100288.63;5086577;28;20047;-65
2022/10/21 09:06:52;;;;;;;12.35;4.95;;;;;;;18.85;99.97;100294.84;5087792;28;20126;-66
2022/10/21 09:09:28;;;;;;;12.85;5.30;;;;;;;18.83;99.50;100289.63;5093633;28;20048;-64
2022/10/21 09:12:07;;;;;;;15.27;6.60;;;;;;;18.88;99.28;100285.72;5103051;28;20040;-65
2022/10/21 09:14:41;;;;;;;11.52;4.72;;;;;;;18.79;99.48;100293.56;5103030;28;20047;-67
2022/10/21 09:17:33;;;;;;;23.48;10.73;;;;;;;18.93;99.49;100288.19;5099714;28;20402;-66
2022/10/21 09:20:05;;;;;;;15.60;3.90;;;;;;;18.96;98.97;100293.81;5094820;28;20051;-65
2022/10/21 09:22:41;;;;;;;13.38;3.78;;;;;;;19.03;98.70;100295.88;5090618;28;20048;-65
2022/10/21 09:25:25;;;;;;;11.50;4.38;;;;;;;19.17;97.30;100293.25;5095036;28;20051;-64
2022/10/21 09:27:53;;;;;;;15.10;4.10;;;;;;;19.15;96.69;100298.41;5098078;28;20067;-65
2022/10/21 09:30:24;;;;;;;18.52;4.43;;;;;;;19.44;97.11;100288.41;5091953;28;20558;-64
2022/10/21 09:32:57;;;;;;;9.70;3.60;;;;;;;19.37;95.96;100288.31;5096383;28;20066;-65
2022/10/21 09:35:45;;;;;;;10.43;4.07;;;;;;;19.43;95.24;100286.78;5093636;28;20047;-67
2022/10/21 09:38:39;;;;;;;11.77;4.30;;;;;;;19.27;97.28;100289.78;5100832;28;20083;-66
2022/10/21 09:41:13;;;;;;;10.60;3.63;;;;;;;18.96;98.25;100277.06;5073272;28;20052;-66
2022/10/21 09:43:42;;;;;;;9.93;3.35;;;;;;;19.02;98.94;100286.69;5092638;28;20043;-66
2022/10/21 09:46:13;;;;;;;13.38;3.75;;;;;;;19.17;98.29;100287.66;5096350;28;20043;-65
2022/10/21 09:48:51;;;;;;;10.07;4.00;;;;;;;19.48;97.09;100286.44;5090995;28;20059;-67
2022/10/21 09:51:41;;;;;;;24.48;10.02;;;;;;;19.75;94.75;100283.09;5094813;28;20150;-66
2022/10/21 09:54:14;;;;;;;16.73;5.10;;;;;;;19.83;93.13;100283.97;5069585;28;20049;-66
2022/10/21 09:56:55;;;;;;;11.10;4.25;;;;;;;19.77;92.55;100285.53;5097157;28;20059;-65
2022/10/21 09:59:24;;;;;;;10.43;3.92;;;;;;;19.77;92.64;100285.53;5099704;28;20511;-66
2022/10/21 10:02:05;;;;;;;12.40;3.85;;;;;;;19.99;91.94;100292.91;5095468;28;20050;-65
2022/10/21 10:04:34;;;;;;;9.05;3.60;;;;;;;19.97;91.64;100301.69;5065414;28;20056;-66
2022/10/21 10:07:17;;;;;;;13.13;4.30;;;;;;;20.07;90.99;100298.16;5092403;28;20044;-64
2022/10/21 10:09:45;;;;;;;11.68;4.05;;;;;;;20.15;89.83;100293.44;5082804;28;20427;-66
2022/10/21 10:12:15;;;;;;;14.95;5.07;;;;;;;20.05;89.29;100294.97;5104320;28;20108;-66
2022/10/21 10:14:44;;;;;;;13.88;4.68;;;;;;;20.14;89.66;100301.03;5106932;28;20046;-66
2022/10/21 10:17:36;;;;;;;17.87;5.93;;;;;;;20.20;89.36;100293.13;5101395;28;20517;-66
2022/10/21 10:20:03;;;;;;;16.95;6.00;;;;;;;20.12;89.29;100292.22;5104006;28;20047;-66
2022/10/21 10:22:40;;;;;;;13.25;5.32;;;;;;;20.28;88.53;100294.75;5096011;28;20233;-67
2022/10/21 10:25:16;;;;;;;16.05;4.95;;;;;;;20.21;88.43;100293.94;5109291;28;20039;-66
2022/10/21 10:27:52;;;;;;;14.35;4.68;;;;;;;20.25;87.56;100300.31;5110956;28;20044;-66
2022/10/21 10:30:21;;;;;;;17.23;6.57;;;;;;;20.27;88.78;100309.16;5100688;28;20052;-66
2022/10/21 10:32:50;;;;;;;28.60;7.53;;;;;;;20.34;88.72;100303.59;5068777;28;20044;-65
2022/10/21 10:35:33;;;;;;;38.67;7.18;;;;;;;20.42;89.00;100294.06;5098666;28;20048;-66
2022/10/21 10:38:01;;;;;;;30.77;6.03;;;;;;;20.61;88.86;100285.38;5078764;28;20055;-64
2022/10/21 10:40:32;;;;;;;20.27;6.78;;;;;;;20.64;88.32;100287.41;5082897;28;20048;-64
2022/10/21 10:43:39;;;;;;;13.75;4.57;;;;;;;20.45;86.14;100293.28;5088790;28;20546;-65
2022/10/21 10:46:09;;;;;;;22.77;5.40;;;;;;;20.49;85.59;100296.91;5072310;28;20598;-67
2022/10/21 10:48:43;;;;;;;15.52;4.50;;;;;;;20.60;84.87;100290.19;5084422;28;20052;-66
2022/10/21 10:51:23;;;;;;;16.85;4.38;;;;;;;20.64;84.13;100293.00;5082556;28;20081;-67
2022/10/21 10:54:26;;;;;;;14.32;3.75;;;;;;;20.59;82.88;100287.78;5084592;28;20063;-66
2022/10/21 10:56:56;;;;;;;16.08;4.57;;;;;;;20.59;81.77;100285.78;5056302;28;20055;-68
2022/10/21 10:59:29;;;;;;;10.55;4.40;;;;;;;20.78;82.26;100295.88;5086815;28;20632;-65
2022/10/21 11:02:10;;;;;;;20.45;4.00;;;;;;;20.82;80.40;100293.88;5080298;28;20059;-66
2022/10/21 11:05:08;;;;;;;16.55;4.18;;;;;;;20.77;80.09;100288.66;5084876;28;20070;-67
2022/10/21 11:07:46;;;;;;;30.17;10.80;;;;;;;20.67;80.27;100284.63;5087610;28;20056;-68
2022/10/21 11:10:33;;;;;;;25.52;7.95;;;;;;;20.68;79.38;100279.81;5087601;28;20060;-69
2022/10/21 11:13:02;;;;;;;22.23;6.25;;;;;;;20.71;78.89;100281.84;5108573;28;20059;-68
2022/10/21 11:15:47;;;;;;;23.05;6.78;;;;;;;20.73;78.83;100285.06;5076939;28;20048;-66
2022/10/21 11:18:29;;;;;;;20.02;6.40;;;;;;;20.72;77.37;100283.44;5089185;28;20047;-67
2022/10/21 11:21:09;;;;;;;19.65;5.35;;;;;;;20.73;76.87;100283.06;5086966;28;20400;-67
2022/10/21 11:24:01;;;;;;;17.02;4.80;;;;;;;20.82;77.04;100280.69;5098584;28;20051;-68
2022/10/21 11:26:43;;;;;;;14.70;4.15;;;;;;;20.95;75.95;100283.97;5088437;28;20056;-65
2022/10/21 11:29:22;;;;;;;16.10;4.55;;;;;;;21.12;75.39;100288.88;5104836;28;20055;-67
2022/10/21 11:32:14;;;;;;;16.73;4.28;;;;;;;20.93;77.77;100289.16;5091959;28;20040;-65
2022/10/21 11:34:59;;;;;;;15.13;4.15;;;;;;;20.80;73.86;100288.69;5095632;28;20058;-66